Time;durP1;ratioP1;P1;durP2;ratioP2;P2;SDS_P1;SDS_P2;PMS_P1;PMS_P2;Temp;Humidity;BMP_temperature;BMP_pressure;BME280_temperature;BME280_humidity;BME280_pressure;Samples;Min_cycle;Max_cycle;Signal;HPM_P1;HPM_P2
2022/06/05 00:00:14;;;;;;;22.45;12.32;;;;;;;;;;5031076;28;20036;-76
2022/06/05 00:02:55;;;;;;;26.13;11.52;;;;;;;;;;5030905;28;20053;-74
2022/06/05 00:05:36;;;;;;;23.60;13.20;;;;;;;;;;5030483;28;20460;-77
2022/06/05 00:08:13;;;;;;;20.42;12.57;;;;;;;;;;5031119;28;20030;-77
2022/06/05 00:10:39;;;;;;;20.35;12.98;;;;;;;;;;5030747;28;20025;-77
2022/06/05 00:13:19;;;;;;;25.23;12.88;;;;;;;;;;5029575;28;20032;-76
2022/06/05 00:15:45;;;;;;;23.98;13.15;;;;;;;;;;5030170;28;20091;-76
2022/06/05 00:18:11;;;;;;;20.00;12.30;;;;;;;;;;5031976;28;20024;-76
2022/06/05 00:20:38;;;;;;;20.92;12.50;;;;;;;;;;5032091;28;20018;-75
2022/06/05 00:23:04;;;;;;;18.23;12.70;;;;;;;;;;5031840;28;20029;-75
2022/06/05 00:25:37;;;;;;;22.70;13.77;;;;;;;;;;5031337;28;20108;-75
2022/06/05 00:28:07;;;;;;;22.40;13.10;;;;;;;;;;5031739;28;20079;-75
2022/06/05 00:30:38;;;;;;;23.48;12.70;;;;;;;;;;5031694;28;20474;-76
2022/06/05 00:33:28;;;;;;;21.23;13.18;;;;;;;;;;5031648;28;20033;-77
2022/06/05 00:35:57;;;;;;;23.05;12.80;;;;;;;;;;5029977;28;20049;-74
2022/06/05 00:38:34;;;;;;;19.02;11.82;;;;;;;;;;5038103;28;20021;-76
2022/06/05 00:41:08;;;;;;;22.60;12.98;;;;;;;;;;5037292;28;20374;-77
2022/06/05 00:43:34;;;;;;;20.77;13.10;;;;;;;;;;5033357;28;20104;-75
2022/06/05 00:46:00;;;;;;;18.80;12.27;;;;;;;;;;5035791;28;20327;-76
2022/06/05 00:48:26;;;;;;;22.02;13.02;;;;;;;;;;5036285;28;20033;-75
2022/06/05 00:50:52;;;;;;;21.40;13.55;;;;;;;;;;5035899;28;20028;-75
2022/06/05 00:53:18;;;;;;;26.33;13.45;;;;;;;;;;5037074;28;20104;-75
2022/06/05 00:55:46;;;;;;;26.38;13.93;;;;;;;;;;5036411;28;20052;-75
2022/06/05 00:58:12;;;;;;;21.55;14.38;;;;;;;;;;5036671;28;20109;-75
2022/06/05 01:00:41;;;;;;;25.52;13.60;;;;;;;;;;5036993;28;20025;-76
2022/06/05 01:03:08;;;;;;;20.83;13.30;;;;;;;;;;5035491;28;20088;-75
2022/06/05 01:05:34;;;;;;;23.05;13.77;;;;;;;;;;5038106;28;20117;-78
2022/06/05 01:08:00;;;;;;;24.70;13.95;;;;;;;;;;5036318;28;20064;-75
2022/06/05 01:10:37;;;;;;;19.10;12.80;;;;;;;;;;5035612;28;20032;-77
2022/06/05 01:13:03;;;;;;;21.80;14.60;;;;;;;;;;5035171;28;20061;-77
2022/06/05 01:15:43;;;;;;;23.50;13.95;;;;;;;;;;5034774;28;20360;-76
2022/06/05 01:18:27;;;;;;;25.67;14.20;;;;;;;;;;5035045;28;20123;-77
2022/06/05 01:21:03;;;;;;;21.75;13.82;;;;;;;;;;5046047;28;20014;-77
2022/06/05 01:23:35;;;;;;;26.05;14.18;;;;;;;;;;5044614;28;20021;-76
2022/06/05 01:26:09;;;;;;;21.20;13.88;;;;;;;;;;5034092;28;20037;-75
2022/06/05 01:28:53;;;;;;;23.30;14.63;;;;;;;;;;5034757;28;20074;-75
2022/06/05 01:31:22;;;;;;;22.33;14.43;;;;;;;;;;5034724;28;20045;-75
2022/06/05 01:34:04;;;;;;;23.17;14.48;;;;;;;;;;5034840;28;20030;-77
2022/06/05 01:36:46;;;;;;;20.50;13.52;;;;;;;;;;5033233;28;20347;-76
2022/06/05 01:39:19;;;;;;;23.33;14.63;;;;;;;;;;5035356;28;20363;-76
2022/06/05 01:41:47;;;;;;;21.30;13.73;;;;;;;;;;5034983;28;20036;-76
2022/06/05 01:44:16;;;;;;;26.17;15.13;;;;;;;;;;5034484;28;20067;-77
2022/06/05 01:46:42;;;;;;;24.13;14.40;;;;;;;;;;5034256;28;20033;-78
2022/06/05 01:49:13;;;;;;;22.10;14.07;;;;;;;;;;5033685;28;20025;-75
2022/06/05 01:52:03;;;;;;;23.02;14.80;;;;;;;;;;5031644;28;20052;-76
2022/06/05 01:54:33;;;;;;;28.40;15.27;;;;;;;;;;5028190;28;20120;-75
2022/06/05 01:56:59;;;;;;;25.25;14.55;;;;;;;;;;5033601;28;20025;-75
2022/06/05 01:59:41;;;;;;;24.50;14.95;;;;;;;;;;5033991;28;20061;-75
2022/06/05 02:02:09;;;;;;;23.88;15.43;;;;;;;;;;5034627;28;20359;-76
2022/06/05 02:04:37;;;;;;;22.17;15.65;;;;;;;;;;5034911;28;20041;-75
2022/06/05 02:07:12;;;;;;;27.05;16.30;;;;;;;;;;5033805;28;20049;-75
2022/06/05 02:09:43;;;;;;;26.27;16.73;;;;;;;;;;5044213;28;20035;-75
2022/06/05 02:12:09;;;;;;;28.10;15.85;;;;;;;;;;5043595;28;20026;-75
2022/06/05 02:14:37;;;;;;;28.63;16.27;;;;;;;;;;5042266;28;20033;-74
2022/06/05 02:17:04;;;;;;;27.10;16.58;;;;;;;;;;5041595;28;20082;-74
2022/06/05 02:19:30;;;;;;;29.13;16.20;;;;;;;;;;5038159;28;20029;-76
2022/06/05 02:22:00;;;;;;;29.92;17.40;;;;;;;;;;5033714;28;20037;-75
2022/06/05 02:24:26;;;;;;;25.40;16.52;;;;;;;;;;5033867;28;20421;-76
2022/06/05 02:26:52;;;;;;;29.77;18.05;;;;;;;;;;5033144;28;20021;-75
2022/06/05 02:29:23;;;;;;;31.30;16.95;;;;;;;;;;5034333;28;20084;-75
2022/06/05 02:32:08;;;;;;;32.25;17.17;;;;;;;;;;5034637;28;20075;-76
2022/06/05 02:34:37;;;;;;;23.52;16.17;;;;;;;;;;5034644;28;20446;-74
2022/06/05 02:37:03;;;;;;;26.85;17.20;;;;;;;;;;5033869;28;20100;-76
2022/06/05 02:39:38;;;;;;;26.33;16.80;;;;;;;;;;5034064;28;20517;-74
2022/06/05 02:42:10;;;;;;;25.45;16.70;;;;;;;;;;5033826;28;20029;-76
2022/06/05 02:44:42;;;;;;;26.55;18.10;;;;;;;;;;5032287;28;20032;-74
2022/06/05 02:47:20;;;;;;;28.38;17.88;;;;;;;;;;5032669;28;20025;-74
2022/06/05 02:50:04;;;;;;;29.05;17.88;;;;;;;;;;5033155;28;20049;-74
2022/06/05 02:52:31;;;;;;;26.23;16.90;;;;;;;;;;5033601;28;20092;-75
2022/06/05 02:55:00;;;;;;;25.38;17.20;;;;;;;;;;5032875;28;20082;-75
2022/06/05 02:57:26;;;;;;;26.88;17.00;;;;;;;;;;5032584;28;20029;-74
2022/06/05 02:59:52;;;;;;;30.38;17.50;;;;;;;;;;5033693;28;20076;-75
2022/06/05 03:05:03;;;;;;;27.88;17.23;;;;;;;;;;5032574;28;20036;-76
2022/06/05 03:07:29;;;;;;;29.73;17.23;;;;;;;;;;5033927;28;20144;-76
2022/06/05 03:09:55;;;;;;;26.23;16.67;;;;;;;;;;5035032;28;20017;-76
2022/06/05 03:12:21;;;;;;;28.15;17.73;;;;;;;;;;5034044;28;20028;-75
2022/06/05 03:14:48;;;;;;;27.27;16.58;;;;;;;;;;5033187;28;20061;-75
2022/06/05 03:17:14;;;;;;;25.98;16.55;;;;;;;;;;5033085;28;20394;-76
2022/06/05 03:19:40;;;;;;;28.55;17.33;;;;;;;;;;5033442;28;20025;-75
2022/06/05 03:22:06;;;;;;;26.27;17.38;;;;;;;;;;5032722;28;20029;-77
2022/06/05 03:24:32;;;;;;;27.73;17.48;;;;;;;;;;5032092;28;20490;-75
2022/06/05 03:26:58;;;;;;;28.38;16.35;;;;;;;;;;5032493;28;20025;-77
2022/06/05 03:29:24;;;;;;;28.98;16.42;;;;;;;;;;5032753;28;20343;-75
2022/06/05 03:31:50;;;;;;;28.55;16.10;;;;;;;;;;5033710;28;20049;-74
2022/06/05 03:34:17;;;;;;;29.00;16.10;;;;;;;;;;5033126;28;20079;-75
2022/06/05 03:36:43;;;;;;;26.98;16.02;;;;;;;;;;5032101;28;20075;-73
2022/06/05 03:39:10;;;;;;;28.33;15.52;;;;;;;;;;5032154;28;20034;-76
2022/06/05 03:41:36;;;;;;;25.83;16.08;;;;;;;;;;5032188;28;20045;-74
2022/06/05 03:44:01;;;;;;;28.42;16.50;;;;;;;;;;5032116;28;20048;-74
2022/06/05 03:46:27;;;;;;;25.75;16.42;;;;;;;;;;5032115;28;20021;-75
2022/06/05 03:48:53;;;;;;;22.80;15.40;;;;;;;;;;5032397;28;20032;-77
2022/06/05 03:51:22;;;;;;;25.20;15.80;;;;;;;;;;5032872;28;20030;-76
2022/06/05 03:53:49;;;;;;;25.23;15.27;;;;;;;;;;5035011;28;20029;-75
2022/06/05 03:56:16;;;;;;;29.98;16.58;;;;;;;;;;5045704;28;20030;-74
2022/06/05 03:58:43;;;;;;;24.45;15.13;;;;;;;;;;5034158;28;20108;-74
2022/06/05 04:01:13;;;;;;;27.58;15.73;;;;;;;;;;5032246;28;20032;-75
2022/06/05 04:03:39;;;;;;;23.25;14.07;;;;;;;;;;5047856;28;20093;-73
2022/06/05 04:06:07;;;;;;;27.92;15.40;;;;;;;;;;5032936;28;20039;-73
2022/06/05 04:08:34;;;;;;;23.77;15.55;;;;;;;;;;5032446;28;20040;-74
2022/06/05 04:11:00;;;;;;;27.80;15.32;;;;;;;;;;5032417;28;20108;-75
2022/06/05 04:13:26;;;;;;;26.00;16.10;;;;;;;;;;5032118;28;20072;-75
2022/06/05 04:15:52;;;;;;;20.33;13.98;;;;;;;;;;5032107;28;20068;-75
2022/06/05 04:18:18;;;;;;;24.13;14.00;;;;;;;;;;5035880;28;20029;-74
2022/06/05 04:20:44;;;;;;;22.67;14.68;;;;;;;;;;5035069;28;20390;-77
2022/06/05 04:23:10;;;;;;;22.80;14.38;;;;;;;;;;5036277;28;20104;-76
2022/06/05 04:25:36;;;;;;;29.25;15.30;;;;;;;;;;5036167;28;20036;-77
2022/06/05 04:28:02;;;;;;;26.08;14.95;;;;;;;;;;5036302;28;20025;-77
2022/06/05 04:30:28;;;;;;;27.52;14.70;;;;;;;;;;5035161;28;20033;-76
2022/06/05 04:32:54;;;;;;;21.98;14.52;;;;;;;;;;5034958;28;20483;-77
2022/06/05 04:35:20;;;;;;;27.67;15.55;;;;;;;;;;5035906;28;20382;-76
2022/06/05 04:37:46;;;;;;;23.80;14.85;;;;;;;;;;5036442;28;20030;-76
2022/06/05 04:40:12;;;;;;;22.88;14.48;;;;;;;;;;5038714;28;20108;-75
2022/06/05 04:42:38;;;;;;;21.98;14.45;;;;;;;;;;5047741;28;20144;-75
2022/06/05 04:45:04;;;;;;;22.90;13.93;;;;;;;;;;5044111;28;20057;-76
2022/06/05 04:47:30;;;;;;;27.30;14.85;;;;;;;;;;5041621;28;20030;-77
2022/06/05 04:49:56;;;;;;;22.85;14.88;;;;;;;;;;5042492;28;20075;-77
2022/06/05 04:52:22;;;;;;;25.58;15.63;;;;;;;;;;5037578;28;20060;-76
2022/06/05 04:54:48;;;;;;;27.35;15.90;;;;;;;;;;5035773;28;20032;-76
2022/06/05 04:57:14;;;;;;;22.65;15.13;;;;;;;;;;5035875;28;20048;-77
2022/06/05 04:59:40;;;;;;;24.70;15.63;;;;;;;;;;5035305;28;20033;-75
2022/06/05 05:02:06;;;;;;;25.75;15.13;;;;;;;;;;5035421;28;20026;-75
2022/06/05 05:04:32;;;;;;;27.05;14.95;;;;;;;;;;5035189;28;20029;-76
2022/06/05 05:06:58;;;;;;;21.45;14.43;;;;;;;;;;5035241;28;20097;-75
2022/06/05 05:09:24;;;;;;;20.15;13.68;;;;;;;;;;5035589;28;20080;-75
2022/06/05 05:11:50;;;;;;;23.10;15.00;;;;;;;;;;5035203;28;20025;-76
2022/06/05 05:14:15;;;;;;;26.33;15.70;;;;;;;;;;5033129;28;20025;-74
2022/06/05 05:16:41;;;;;;;25.52;14.95;;;;;;;;;;5032236;28;20052;-76
2022/06/05 05:19:08;;;;;;;22.77;15.00;;;;;;;;;;5036345;28;20167;-78
2022/06/05 05:21:34;;;;;;;23.70;15.00;;;;;;;;;;5040055;28;20034;-77
2022/06/05 05:24:00;;;;;;;25.80;14.65;;;;;;;;;;5037016;28;20112;-77
2022/06/05 05:26:28;;;;;;;23.75;15.38;;;;;;;;;;5035909;28;20021;-75
2022/06/05 05:28:54;;;;;;;24.58;14.68;;;;;;;;;;5033636;28;20057;-75
2022/06/05 05:31:24;;;;;;;22.17;14.65;;;;;;;;;;5034540;28;20095;-77
2022/06/05 05:33:50;;;;;;;22.13;14.43;;;;;;;;;;5034754;28;20028;-77
2022/06/05 05:36:20;;;;;;;22.25;14.95;;;;;;;;;;5038535;28;20367;-76
2022/06/05 05:44:16;;;;;;;20.08;13.38;;;;;;;;;;5034933;28;20083;-76
2022/06/05 05:46:42;;;;;;;21.77;13.07;;;;;;;;;;5033806;28;20025;-77
2022/06/05 05:49:08;;;;;;;19.83;12.98;;;;;;;;;;5034951;28;20049;-76
2022/06/05 05:51:34;;;;;;;20.92;12.07;;;;;;;;;;5035142;28;20041;-79
2022/06/05 05:54:00;;;;;;;20.42;12.13;;;;;;;;;;5034724;28;20100;-77
2022/06/05 05:56:26;;;;;;;19.73;11.75;;;;;;;;;;5034937;28;20535;-76
2022/06/05 05:58:52;;;;;;;18.45;10.95;;;;;;;;;;5034679;28;20474;-77
2022/06/05 06:01:18;;;;;;;23.58;11.70;;;;;;;;;;5035000;28;20505;-76
2022/06/05 06:03:44;;;;;;;23.40;13.23;;;;;;;;;;5033682;28;20033;-76
2022/06/05 06:06:10;;;;;;;20.67;11.63;;;;;;;;;;5038727;28;20037;-77
2022/06/05 06:08:36;;;;;;;15.98;10.68;;;;;;;;;;5037284;28;20370;-77
2022/06/05 06:11:02;;;;;;;16.83;10.07;;;;;;;;;;5041158;28;20029;-78
2022/06/05 06:13:29;;;;;;;16.65;10.60;;;;;;;;;;5040033;28;20033;-76
2022/06/05 06:15:55;;;;;;;19.15;11.25;;;;;;;;;;5037110;28;20028;-81
2022/06/05 06:18:21;;;;;;;19.67;9.27;;;;;;;;;;5037013;28;20030;-79
2022/06/05 06:20:48;;;;;;;16.40;9.70;;;;;;;;;;5039761;28;20052;-78
2022/06/05 06:23:14;;;;;;;16.35;10.02;;;;;;;;;;5051929;28;20025;-77
2022/06/05 06:25:41;;;;;;;16.23;9.73;;;;;;;;;;5047581;28;20021;-78
2022/06/05 06:28:07;;;;;;;21.45;9.80;;;;;;;;;;5042072;28;20026;-77
2022/06/05 06:30:33;;;;;;;15.23;9.32;;;;;;;;;;5049924;28;20056;-78
2022/06/05 06:32:59;;;;;;;22.38;9.98;;;;;;;;;;5038730;28;20026;-77
2022/06/05 06:35:25;;;;;;;15.90;8.75;;;;;;;;;;5033290;28;20064;-77
2022/06/05 06:37:51;;;;;;;17.40;8.27;;;;;;;;;;5035486;28;20029;-78
2022/06/05 06:40:17;;;;;;;14.30;8.10;;;;;;;;;;5034770;28;20053;-76
2022/06/05 06:42:43;;;;;;;13.95;8.10;;;;;;;;;;5034608;28;20437;-77
2022/06/05 06:45:09;;;;;;;12.77;7.80;;;;;;;;;;5035785;28;20064;-77
2022/06/05 06:47:35;;;;;;;12.55;7.90;;;;;;;;;;5035637;28;20096;-76
2022/06/05 06:50:01;;;;;;;14.43;8.52;;;;;;;;;;5033955;28;20424;-76
2022/06/05 06:52:27;;;;;;;15.00;8.07;;;;;;;;;;5035289;28;20025;-77
2022/06/05 06:54:56;;;;;;;17.13;8.15;;;;;;;;;;5035171;28;20029;-75
2022/06/05 06:57:22;;;;;;;14.20;7.43;;;;;;;;;;5035792;28;20029;-78
2022/06/05 06:59:48;;;;;;;16.27;8.45;;;;;;;;;;5035835;28;20522;-78
2022/06/05 07:02:14;;;;;;;11.77;7.55;;;;;;;;;;5035706;28;20029;-78
2022/06/05 07:04:40;;;;;;;10.90;5.97;;;;;;;;;;5036440;28;20025;-76
2022/06/05 07:07:06;;;;;;;10.32;6.35;;;;;;;;;;5034853;28;20506;-76
2022/06/05 07:09:32;;;;;;;12.20;5.88;;;;;;;;;;5036006;28;20032;-79
2022/06/05 07:11:58;;;;;;;8.80;5.57;;;;;;;;;;5035856;28;20053;-76
2022/06/05 07:14:26;;;;;;;10.13;5.80;;;;;;;;;;5045763;28;20029;-76
2022/06/05 07:16:52;;;;;;;9.15;5.22;;;;;;;;;;5045971;28;20085;-77
2022/06/05 07:19:18;;;;;;;10.10;5.57;;;;;;;;;;5043177;28;20029;-76
2022/06/05 07:21:44;;;;;;;12.02;5.78;;;;;;;;;;5043736;28;20029;-76
2022/06/05 07:24:10;;;;;;;8.10;5.45;;;;;;;;;;5037608;28;20034;-77
2022/06/05 07:26:36;;;;;;;12.70;5.43;;;;;;;;;;5034417;28;20470;-75
2022/06/05 07:29:02;;;;;;;8.23;5.15;;;;;;;;;;5035725;28;20048;-76
2022/06/05 07:31:29;;;;;;;10.63;5.32;;;;;;;;;;5037627;28;20634;-76
2022/06/05 07:33:55;;;;;;;6.93;4.72;;;;;;;;;;5036970;28;20047;-75
2022/06/05 07:36:22;;;;;;;10.65;5.18;;;;;;;;;;5037739;28;20458;-76
2022/06/05 07:38:48;;;;;;;14.32;5.15;;;;;;;;;;5041176;28;20060;-78
2022/06/05 07:41:19;;;;;;;8.98;5.32;;;;;;;;;;5033286;28;20032;-76
2022/06/05 07:43:45;;;;;;;14.68;4.90;;;;;;;;;;5033051;28;20045;-77
2022/06/05 07:46:12;;;;;;;13.30;5.10;;;;;;;;;;5032194;28;20026;-76
2022/06/05 07:48:38;;;;;;;8.38;4.65;;;;;;;;;;5033380;28;20092;-76
2022/06/05 07:56:35;;;;;;;11.20;4.18;;;;;;;;;;5032660;28;20040;-74
2022/06/05 07:59:01;;;;;;;8.30;4.15;;;;;;;;;;5033050;28;20029;-76
2022/06/05 08:01:27;;;;;;;10.45;4.40;;;;;;;;;;5033002;28;20029;-76
2022/06/05 08:03:53;;;;;;;7.95;4.15;;;;;;;;;;5033824;28;20506;-77
2022/06/05 08:06:19;;;;;;;7.60;4.13;;;;;;;;;;5033169;28;20029;-75
2022/06/05 08:08:45;;;;;;;6.63;3.60;;;;;;;;;;5032347;28;20549;-74
2022/06/05 08:11:11;;;;;;;5.65;3.40;;;;;;;;;;5032603;28;20022;-76
2022/06/05 08:13:37;;;;;;;6.40;3.70;;;;;;;;;;5031477;28;20513;-74
2022/06/05 08:16:03;;;;;;;8.45;3.88;;;;;;;;;;5031615;28;20030;-75
2022/06/05 08:18:29;;;;;;;6.68;3.90;;;;;;;;;;5032082;28;20419;-76
2022/06/05 08:20:55;;;;;;;11.90;4.18;;;;;;;;;;5031493;28;20026;-77
2022/06/05 08:23:22;;;;;;;8.98;3.65;;;;;;;;;;5029992;28;20029;-76
2022/06/05 08:25:48;;;;;;;7.22;4.20;;;;;;;;;;5031586;28;20509;-76
2022/06/05 08:28:14;;;;;;;7.22;3.90;;;;;;;;;;5031549;28;20529;-74
2022/06/05 08:30:40;;;;;;;10.10;4.70;;;;;;;;;;5031567;28;20017;-74
2022/06/05 08:33:07;;;;;;;7.45;3.75;;;;;;;;;;5032603;28;20025;-76
2022/06/05 08:35:33;;;;;;;7.68;4.03;;;;;;;;;;5042241;28;20108;-76
2022/06/05 08:44:02;;;;;;;7.47;4.10;;;;;;;;;;5048146;28;20041;-75
2022/06/05 08:46:37;;;;;;;7.28;3.80;;;;;;;;;;5045582;22;20131;-75
2022/06/05 08:49:10;;;;;;;12.80;3.90;;;;;;;;;;5030333;28;20026;-76
2022/06/05 08:51:39;;;;;;;8.20;4.00;;;;;;;;;;5030711;28;20036;-75
2022/06/05 08:54:17;;;;;;;9.65;3.97;;;;;;;;;;5031489;28;20034;-76
2022/06/05 08:56:59;;;;;;;6.28;3.55;;;;;;;;;;5032415;28;20021;-75
2022/06/05 08:59:27;;;;;;;6.93;3.85;;;;;;;;;;5032115;28;20128;-76
2022/06/05 09:02:02;;;;;;;6.07;4.20;;;;;;;;;;5032385;28;20025;-77
2022/06/05 09:04:44;;;;;;;16.60;3.75;;;;;;;;;;5033780;28;20038;-75
2022/06/05 09:07:16;;;;;;;5.40;3.33;;;;;;;;;;5032264;28;20045;-74
2022/06/05 09:09:42;;;;;;;10.48;4.60;;;;;;;;;;5034718;28;20026;-74
2022/06/05 09:12:28;;;;;;;8.90;3.55;;;;;;;;;;5034856;28;20025;-76
2022/06/05 09:14:54;;;;;;;8.25;3.28;;;;;;;;;;5024052;28;20056;-75
2022/06/05 09:17:21;;;;;;;5.93;3.70;;;;;;;;;;5033854;28;20029;-75
2022/06/05 09:19:48;;;;;;;5.72;3.47;;;;;;;;;;5032701;28;20049;-76
2022/06/05 09:22:16;;;;;;;5.90;3.92;;;;;;;;;;5034020;28;20032;-75
2022/06/05 09:25:01;;;;;;;8.30;3.70;;;;;;;;;;5033162;28;20037;-74
2022/06/05 09:27:27;;;;;;;;;;;;;;;;;;5034190;28;20569;-75
2022/06/05 09:30:01;;;;;;;6.78;3.67;;;;;;;;;;5034494;28;19951;-76
2022/06/05 09:32:46;;;;;;;6.95;3.80;;;;;;;;;;5033938;28;20048;-74
2022/06/05 09:35:12;;;;;;;;;;;;;;;;;;5034423;28;20049;-74
2022/06/05 09:37:57;;;;;;;8.68;3.38;;;;;;;;;;5032727;28;20290;-75
2022/06/05 09:40:23;;;;;;;6.55;3.50;;;;;;;;;;5034762;28;20056;-75
2022/06/05 09:43:08;;;;;;;4.95;3.53;;;;;;;;;;5035560;28;20025;-76
2022/06/05 09:45:50;;;;;;;5.00;3.33;;;;;;;;;;5033683;28;20108;-74
2022/06/05 09:48:19;;;;;;;6.07;3.92;;;;;;;;;;5034699;28;20022;-75
2022/06/05 09:50:45;;;;;;;7.40;3.65;;;;;;;;;;5034350;28;20112;-76
2022/06/05 09:53:17;;;;;;;7.78;3.90;;;;;;;;;;5034660;28;20021;-74
2022/06/05 09:55:56;;;;;;;6.70;3.38;;;;;;;;;;5045046;28;20036;-75
2022/06/05 09:58:34;;;;;;;7.25;3.50;;;;;;;;;;5048069;28;20052;-74
2022/06/05 10:01:18;;;;;;;4.93;3.25;;;;;;;;;;5050294;28;20041;-75
2022/06/05 10:03:44;;;;;;;5.13;3.30;;;;;;;;;;5048458;28;20029;-75
2022/06/05 10:06:17;;;;;;;8.18;4.20;;;;;;;;;;5049597;28;20030;-75
2022/06/05 10:08:48;;;;;;;7.15;4.20;;;;;;;;;;5040236;28;20104;-75
2022/06/05 10:11:23;;;;;;;10.13;4.25;;;;;;;;;;5035413;28;20097;-76
2022/06/05 10:13:57;;;;;;;5.60;3.35;;;;;;;;;;5035942;28;20447;-75
2022/06/05 10:16:34;;;;;;;7.18;3.53;;;;;;;;;;5034005;28;20405;-76
2022/06/05 10:19:00;;;;;;;9.38;4.32;;;;;;;;;;5034258;28;20029;-75
2022/06/05 10:21:32;;;;;;;8.35;3.78;;;;;;;;;;5032494;28;20087;-75
2022/06/05 10:24:08;;;;;;;5.28;3.65;;;;;;;;;;5032138;28;20444;-75
2022/06/05 10:26:37;;;;;;;6.13;3.67;;;;;;;;;;5032425;28;20032;-76
2022/06/05 10:29:18;;;;;;;6.57;3.65;;;;;;;;;;5032144;28;20089;-75
2022/06/05 10:31:51;;;;;;;7.50;3.53;;;;;;;;;;5031467;28;20029;-75
2022/06/05 10:34:20;;;;;;;7.25;3.78;;;;;;;;;;5032997;28;20029;-76
2022/06/05 10:36:58;;;;;;;6.57;3.42;;;;;;;;;;5032609;28;20027;-75
2022/06/05 10:39:30;;;;;;;4.05;3.33;;;;;;;;;;5033504;28;20025;-75
2022/06/05 10:41:56;;;;;;;5.85;3.13;;;;;;;;;;5036388;28;20026;-77
2022/06/05 10:44:22;;;;;;;5.80;3.50;;;;;;;;;;5035213;28;20044;-74
2022/06/05 10:47:08;;;;;;;12.73;6.57;;;;;;;;;;5032619;28;20055;-74
2022/06/05 10:49:53;;;;;;;5.70;3.65;;;;;;;;;;4993520;28;20048;-76
2022/06/05 10:52:22;;;;;;;5.63;3.65;;;;;;;;;;5034047;28;20135;-74
2022/06/05 10:54:52;;;;;;;5.88;3.45;;;;;;;;;;5032355;28;20117;-75
2022/06/05 10:57:24;;;;;;;5.47;3.13;;;;;;;;;;5033340;28;20034;-74
2022/06/05 11:00:03;;;;;;;3.95;3.13;;;;;;;;;;5034616;28;20033;-76
2022/06/05 11:02:36;;;;;;;6.50;3.45;;;;;;;;;;5032833;28;20087;-76
2022/06/05 11:05:21;;;;;;;7.28;3.13;;;;;;;;;;5031931;28;20030;-75
2022/06/05 11:07:54;;;;;;;3.88;3.10;;;;;;;;;;5032949;28;20052;-75
2022/06/05 11:13:39;;;;;;;9.43;3.08;;;;;;;;;;5033256;28;20018;-76
2022/06/05 11:13:43;;;;;;;5.18;2.90;;;;;;;;;;5033612;28;20035;-74
2022/06/05 11:16:28;;;;;;;4.90;3.25;;;;;;;;;;5032042;28;20021;-74
2022/06/05 11:19:02;;;;;;;6.22;3.03;;;;;;;;;;5034168;28;20025;-75
2022/06/05 11:21:29;;;;;;;2.92;2.60;;;;;;;;;;5035724;28;20033;-76
2022/06/05 11:23:57;;;;;;;7.43;3.20;;;;;;;;;;5037072;28;20030;-75
2022/06/05 11:26:29;;;;;;;5.32;2.63;;;;;;;;;;5039124;28;20025;-74
2022/06/05 11:28:55;;;;;;;4.03;2.67;;;;;;;;;;5035518;28;20367;-76
2022/06/05 11:31:36;;;;;;;8.90;4.65;;;;;;;;;;5034480;28;20061;-75
2022/06/05 11:34:21;;;;;;;5.47;3.30;;;;;;;;;;5035315;28;20029;-76
2022/06/05 11:36:46;;;;;;;;;;;;;;;;;;5040252;28;20533;-76
2022/06/05 11:39:18;;;;;;;4.72;3.03;;;;;;;;;;5039767;28;19916;-76
2022/06/05 11:41:48;;;;;;;3.90;2.80;;;;;;;;;;5036075;28;20036;-76
2022/06/05 11:44:19;;;;;;;8.32;3.53;;;;;;;;;;5033078;28;20033;-76
2022/06/05 11:47:06;;;;;;;5.60;3.10;;;;;;;;;;5034120;28;20049;-76
2022/06/05 11:49:48;;;;;;;4.22;2.35;;;;;;;;;;5031415;28;20061;-75
2022/06/05 11:52:25;;;;;;;5.05;2.30;;;;;;;;;;5033595;28;20048;-76
2022/06/05 11:54:51;;;;;;;3.92;2.63;;;;;;;;;;5032985;28;20029;-75
2022/06/05 11:57:21;;;;;;;4.38;2.38;;;;;;;;;;5031882;28;20036;-75
2022/06/05 11:59:55;;;;;;;4.47;2.38;;;;;;;;;;5033521;28;20033;-76
2022/06/05 12:02:27;;;;;;;4.72;2.35;;;;;;;;;;5032018;28;20040;-75
2022/06/05 12:04:57;;;;;;;4.07;2.20;;;;;;;;;;5033560;28;20052;-77
2022/06/05 12:07:25;;;;;;;3.22;2.33;;;;;;;;;;5034057;28;20470;-76
2022/06/05 12:09:55;;;;;;;5.28;3.05;;;;;;;;;;5033926;28;20087;-77
2022/06/05 12:12:27;;;;;;;4.15;2.92;;;;;;;;;;5033834;28;20132;-75
2022/06/05 12:15:11;;;;;;;6.05;3.30;;;;;;;;;;5034223;28;20074;-77
2022/06/05 12:17:56;;;;;;;4.63;2.30;;;;;;;;;;5050902;28;20034;-74
2022/06/05 12:20:22;;;;;;;;;;;;;;;;;;5044256;28;20330;-76
2022/06/05 12:22:54;;;;;;;4.88;2.20;;;;;;;;;;5032176;28;19960;-75
2022/06/05 12:25:26;;;;;;;2.80;2.17;;;;;;;;;;5031611;28;20028;-75
2022/06/05 12:28:05;;;;;;;3.28;2.30;;;;;;;;;;5031226;28;20032;-76
2022/06/05 12:30:51;;;;;;;4.18;2.15;;;;;;;;;;5032515;28;20497;-76
2022/06/05 12:33:19;;;;;;;5.50;2.78;;;;;;;;;;5032495;28;20021;-75
2022/06/05 12:35:49;;;;;;;4.57;2.42;;;;;;;;;;5036200;28;20034;-76
2022/06/05 12:38:28;;;;;;;2.70;2.05;;;;;;;;;;5038981;28;20032;-76
2022/06/05 12:40:57;;;;;;;2.53;2.05;;;;;;;;;;5042837;28;20147;-74
2022/06/05 12:43:29;;;;;;;3.15;2.60;;;;;;;;;;5042774;28;20029;-76
2022/06/05 12:46:18;;;;;;;3.13;2.25;;;;;;;;;;5040633;28;20033;-74
2022/06/05 12:48:44;;;;;;;3.42;2.30;;;;;;;;;;5041524;28;20052;-75
2022/06/05 12:51:14;;;;;;;5.68;2.38;;;;;;;;;;5037149;28;20239;-76
2022/06/05 12:53:50;;;;;;;2.63;1.88;;;;;;;;;;5036418;28;20038;-75
2022/06/05 12:56:19;;;;;;;3.63;2.17;;;;;;;;;;5037241;28;20021;-75
2022/06/05 12:58:45;;;;;;;4.05;2.42;;;;;;;;;;5035224;28;20049;-75
2022/06/05 13:01:13;;;;;;;4.30;1.92;;;;;;;;;;5036190;28;20480;-75
2022/06/05 13:04:02;;;;;;;5.63;2.00;;;;;;;;;;5033478;28;20040;-75
2022/06/05 13:06:37;;;;;;;3.15;1.80;;;;;;;;;;5035701;28;20022;-81
2022/06/05 13:09:15;;;;;;;6.10;2.28;;;;;;;;;;5035845;28;20087;-75
2022/06/05 13:11:44;;;;;;;6.43;2.28;;;;;;;;;;5036357;28;20026;-77
2022/06/05 13:14:26;;;;;;;2.90;1.95;;;;;;;;;;5034479;28;20029;-74
2022/06/05 13:16:58;;;;;;;4.90;2.03;;;;;;;;;;5035566;28;20018;-77
2022/06/05 13:19:25;;;;;;;5.50;2.20;;;;;;;;;;5035972;28;20025;-74
2022/06/05 13:21:51;;;;;;;3.03;2.03;;;;;;;;;;5035925;28;20021;-74
2022/06/05 13:24:32;;;;;;;4.50;1.90;;;;;;;;;;5035823;28;20032;-74
2022/06/05 13:27:15;;;;;;;3.38;1.80;;;;;;;;;;5035006;28;20021;-75
2022/06/05 13:29:54;;;;;;;3.92;1.83;;;;;;;;;;5034859;28;20080;-78
2022/06/05 13:32:32;;;;;;;2.90;2.33;;;;;;;;;;5037324;28;20028;-74
2022/06/05 13:35:03;;;;;;;2.28;1.67;;;;;;;;;;5036886;28;20026;-74
2022/06/05 13:37:45;;;;;;;6.28;1.92;;;;;;;;;;5034980;28;20135;-76
2022/06/05 13:40:18;;;;;;;2.53;1.95;;;;;;;;;;5034720;28;20022;-76
2022/06/05 13:42:49;;;;;;;3.35;1.55;;;;;;;;;;5034748;28;20113;-75
2022/06/05 13:45:21;;;;;;;6.65;1.70;;;;;;;;;;5034439;28;20030;-75
2022/06/05 13:47:50;;;;;;;3.20;1.85;;;;;;;;;;5033396;28;20453;-76
2022/06/05 13:50:19;;;;;;;4.22;1.63;;;;;;;;;;5033934;28;20108;-75
2022/06/05 13:52:52;;;;;;;3.95;1.90;;;;;;;;;;5035040;28;20025;-75
2022/06/05 13:55:21;;;;;;;5.43;1.50;;;;;;;;;;5034347;28;20025;-75
2022/06/05 13:57:55;;;;;;;2.95;1.80;;;;;;;;;;5034094;28;20463;-75
2022/06/05 14:00:23;;;;;;;2.67;1.50;;;;;;;;;;5034420;28;20033;-74
2022/06/05 14:03:01;;;;;;;6.13;2.30;;;;;;;;;;5035397;28;20077;-79
2022/06/05 14:05:48;;;;;;;6.03;1.77;;;;;;;;;;5031961;28;20034;-74
2022/06/05 14:08:22;;;;;;;2.70;1.48;;;;;;;;;;5033639;28;20052;-75
2022/06/05 14:11:06;;;;;;;2.80;1.40;;;;;;;;;;5034280;28;20711;-76
2022/06/05 14:13:39;;;;;;;2.20;1.20;;;;;;;;;;5034190;28;20024;-75
2022/06/05 14:16:05;;;;;;;1.92;1.45;;;;;;;;;;5031838;28;20034;-75
2022/06/05 14:18:31;;;;;;;3.60;1.60;;;;;;;;;;5034319;28;20489;-74
2022/06/05 14:20:59;;;;;;;4.32;1.55;;;;;;;;;;5034543;28;20028;-74
2022/06/05 14:23:26;;;;;;;1.77;1.40;;;;;;;;;;5034931;28;20026;-73
2022/06/05 14:25:53;;;;;;;2.20;1.50;;;;;;;;;;5042024;28;20048;-75
2022/06/05 14:28:23;;;;;;;3.53;1.90;;;;;;;;;;5039777;28;20018;-76
2022/06/05 14:30:56;;;;;;;2.50;1.50;;;;;;;;;;5034858;28;20097;-75
2022/06/05 14:33:27;;;;;;;1.38;1.27;;;;;;;;;;5034645;28;20454;-76
2022/06/05 14:35:53;;;;;;;2.92;1.58;;;;;;;;;;5033373;28;20049;-74
2022/06/05 14:38:28;;;;;;;2.30;1.40;;;;;;;;;;5033664;28;20068;-75
2022/06/05 14:40:54;;;;;;;;;;;;;;;;;;5032570;28;20116;-75
2022/06/05 14:43:24;;;;;;;2.97;1.48;;;;;;;;;;5035434;28;19944;-74
2022/06/05 14:45:52;;;;;;;3.33;1.50;;;;;;;;;;5059571;23;20068;-74
2022/06/05 14:48:29;;;;;;;1.83;1.50;;;;;;;;;;5033473;28;20104;-74
2022/06/05 14:51:07;;;;;;;3.05;1.30;;;;;;;;;;5033606;28;20049;-76
2022/06/05 14:53:33;;;;;;;2.63;1.92;;;;;;;;;;5033664;28;20048;-76
2022/06/05 14:59:04;;;;;;;2.92;1.65;;;;;;;;;;5033835;28;20045;-74
2022/06/05 15:01:34;;;;;;;3.05;1.77;;;;;;;;;;5031985;28;20030;-74
2022/06/05 15:04:07;;;;;;;2.25;1.70;;;;;;;;;;5033460;28;20025;-71
2022/06/05 15:06:36;;;;;;;2.58;1.98;;;;;;;;;;5032605;28;20021;-71
2022/06/05 15:09:22;;;;;;;2.33;1.92;;;;;;;;;;5032931;28;20018;-71
2022/06/05 15:11:55;;;;;;;4.18;2.45;;;;;;;;;;5032422;28;20026;-72